Time;durP1;ratioP1;P1;durP2;ratioP2;P2;SDS_P1;SDS_P2;PMS_P1;PMS_P2;Temp;Humidity;BMP_temperature;BMP_pressure;BME280_temperature;BME280_humidity;BME280_pressure;Samples;Min_cycle;Max_cycle;Signal;HPM_P1;HPM_P2
2022/07/13 00:00:38;;;;;;;1.70;1.60;;;14.40;99.90;;;;;;5061205;28;20120;-94
2022/07/13 00:03:16;;;;;;;3.28;1.50;;;14.40;99.90;;;;;;5063320;28;20033;-94
2022/07/13 00:05:42;;;;;;;3.53;1.48;;;14.60;99.90;;;;;;5077475;28;20040;-94
2022/07/13 00:08:07;;;;;;;1.55;1.30;;;14.70;99.90;;;;;;5060999;28;20029;-94
2022/07/13 00:10:33;;;;;;;2.95;1.40;;;14.80;99.90;;;;;;5060928;28;20124;-94
2022/07/13 00:12:59;;;;;;;1.30;1.20;;;15.00;99.90;;;;;;5061255;28;20033;-94
2022/07/13 00:15:24;;;;;;;1.40;1.27;;;15.00;99.90;;;;;;5060632;28;20036;-92
2022/07/13 00:17:50;;;;;;;1.60;1.20;;;15.10;99.90;;;;;;5061149;28;20029;-94
2022/07/13 00:20:16;;;;;;;4.75;1.30;;;15.10;99.90;;;;;;5060691;28;20051;-95
2022/07/13 00:22:41;;;;;;;1.27;1.10;;;15.10;99.90;;;;;;5060458;28;20025;-95
2022/07/13 00:25:08;;;;;;;1.23;1.13;;;15.20;99.90;;;;;;5061237;28;20040;-95
2022/07/13 00:27:33;;;;;;;1.52;1.20;;;15.20;99.90;;;;;;5061124;28;20033;-94
2022/07/13 00:29:59;;;;;;;1.77;1.40;;;15.30;99.90;;;;;;5060154;28;20108;-93
2022/07/13 00:32:25;;;;;;;2.95;1.20;;;15.40;99.90;;;;;;5060651;28;20025;-94
2022/07/13 00:34:50;;;;;;;1.30;1.20;;;15.50;99.90;;;;;;5060438;28;20031;-93
2022/07/13 00:37:16;;;;;;;1.95;1.17;;;15.60;99.90;;;;;;5060822;28;20029;-94
2022/07/13 00:39:42;;;;;;;1.60;1.38;;;15.70;99.90;;;;;;5060862;28;20040;-94
2022/07/13 00:42:08;;;;;;;2.28;1.30;;;15.70;99.90;;;;;;5060929;28;20040;-94
2022/07/13 00:44:33;;;;;;;3.03;1.40;;;15.80;99.90;;;;;;5063625;28;20035;-95
2022/07/13 00:46:59;;;;;;;1.58;1.35;;;15.80;99.90;;;;;;5061077;28;20096;-95
2022/07/13 00:49:25;;;;;;;1.42;1.30;;;15.90;99.90;;;;;;5060838;28;20088;-93
2022/07/13 00:51:51;;;;;;;1.27;1.17;;;16.00;99.90;;;;;;5060518;28;20025;-95
2022/07/13 00:54:19;;;;;;;3.58;1.25;;;16.00;99.90;;;;;;5060876;28;20031;-94
2022/07/13 00:56:48;;;;;;;1.08;1.05;;;16.10;99.90;;;;;;5060332;28;20020;-94
2022/07/13 00:59:14;;;;;;;1.27;1.17;;;16.10;99.90;;;;;;5059747;28;20029;-95
2022/07/13 01:01:40;;;;;;;1.30;1.20;;;16.10;99.90;;;;;;5060361;28;20032;-93
2022/07/13 01:04:05;;;;;;;2.95;1.08;;;16.10;99.90;;;;;;5059893;28;20024;-93
2022/07/13 01:06:31;;;;;;;1.20;1.10;;;16.20;99.90;;;;;;5059865;28;20036;-94
2022/07/13 01:08:57;;;;;;;1.35;1.20;;;16.20;99.90;;;;;;5060181;28;20124;-94
2022/07/13 01:11:23;;;;;;;1.23;1.13;;;16.20;99.90;;;;;;5059703;28;20060;-94
2022/07/13 01:13:49;;;;;;;1.17;1.08;;;16.30;99.90;;;;;;5060396;28;20033;-94
2022/07/13 01:16:15;;;;;;;4.15;1.48;;;16.30;99.90;;;;;;5060409;28;20033;-94
2022/07/13 01:18:41;;;;;;;1.27;1.17;;;16.40;99.90;;;;;;5060780;28;20048;-95
2022/07/13 01:21:08;;;;;;;1.33;1.20;;;16.40;99.90;;;;;;5060613;28;20480;-94
2022/07/13 01:23:34;;;;;;;2.83;1.17;;;16.40;99.90;;;;;;5060434;28;20025;-96
2022/07/13 01:26:01;;;;;;;1.75;1.17;;;16.50;99.90;;;;;;5060055;28;20035;-95
2022/07/13 01:28:27;;;;;;;1.30;1.20;;;16.50;99.90;;;;;;5060028;28;20060;-95
2022/07/13 01:30:53;;;;;;;1.50;1.38;;;16.40;99.90;;;;;;5060273;28;20570;-94
2022/07/13 01:33:19;;;;;;;1.95;1.50;;;16.40;99.90;;;;;;5059995;28;20032;-93
2022/07/13 01:35:45;;;;;;;1.20;1.10;;;16.40;99.90;;;;;;5060061;28;20116;-94
2022/07/13 01:38:11;;;;;;;1.40;1.30;;;16.50;99.90;;;;;;5059758;28;20032;-95
2022/07/13 01:40:41;;;;;;;2.72;2.10;;;16.50;99.90;;;;;;5059737;28;20212;-94
2022/07/13 01:43:07;;;;;;;1.45;1.30;;;16.60;99.90;;;;;;5059515;28;20485;-94
2022/07/13 01:45:33;;;;;;;2.55;1.70;;;16.60;99.90;;;;;;5059664;28;20028;-94
2022/07/13 01:47:59;;;;;;;2.50;1.80;;;16.60;99.90;;;;;;5059203;28;20124;-93
2022/07/13 01:50:27;;;;;;;1.70;1.52;;;16.60;99.90;;;;;;5059127;28;20150;-94
2022/07/13 01:52:53;;;;;;;4.95;2.47;;;16.60;99.90;;;;;;5059812;28;20028;-94
2022/07/13 01:55:20;;;;;;;3.75;2.20;;;16.50;99.90;;;;;;5059376;28;20392;-94
2022/07/13 01:57:46;;;;;;;2.30;2.10;;;16.50;99.90;;;;;;5058927;28;20059;-94
2022/07/13 02:00:20;;;;;;;2.13;1.92;;;16.50;99.90;;;;;;5059097;28;20032;-94
2022/07/13 02:02:48;;;;;;;1.83;1.65;;;16.60;99.90;;;;;;5059480;28;20041;-95
2022/07/13 02:06:17;;;;;;;1.85;1.50;;;16.60;99.90;;;;;;5059670;28;20025;-95
2022/07/13 02:12:08;;;;;;;1.63;1.52;;;16.80;99.90;;;;;;5058741;28;20044;-94
2022/07/13 02:14:34;;;;;;;2.22;1.35;;;16.80;99.90;;;;;;5059058;28;20028;-94
2022/07/13 02:17:00;;;;;;;1.80;1.48;;;16.80;99.90;;;;;;5058887;28;20399;-95
2022/07/13 02:19:26;;;;;;;3.72;1.70;;;16.80;99.90;;;;;;5059311;28;20033;-95
2022/07/13 02:21:53;;;;;;;1.42;1.30;;;16.80;99.90;;;;;;5058916;28;20392;-95
2022/07/13 02:24:18;;;;;;;1.50;1.40;;;16.80;99.90;;;;;;5059231;28;20086;-93
2022/07/13 02:26:46;;;;;;;1.40;1.20;;;16.70;99.90;;;;;;5058581;28;20024;-94
2022/07/13 02:29:11;;;;;;;1.60;1.20;;;16.60;99.90;;;;;;5058698;28;20411;-95
2022/07/13 02:31:40;;;;;;;2.05;1.30;;;16.60;99.90;;;;;;5059007;28;20090;-94
2022/07/13 02:34:06;;;;;;;1.30;1.20;;;16.50;99.90;;;;;;5058837;28;20029;-93
2022/07/13 02:36:32;;;;;;;2.28;1.30;;;16.40;99.90;;;;;;5058592;28;20036;-94
2022/07/13 02:38:58;;;;;;;3.30;1.92;;;16.30;99.90;;;;;;5058248;28;20032;-94
2022/07/13 02:41:23;;;;;;;1.20;1.10;;;16.10;99.90;;;;;;5058860;28;20119;-93
2022/07/13 02:43:50;;;;;;;3.60;1.45;;;15.90;99.90;;;;;;5058643;28;20021;-94
2022/07/13 02:46:15;;;;;;;2.15;1.42;;;15.80;99.90;;;;;;5058626;28;20112;-94
2022/07/13 02:49:09;;;;;;;1.83;1.35;;;15.70;99.90;;;;;;5058548;28;20021;-94
2022/07/13 02:51:36;;;;;;;2.25;1.50;;;15.40;99.90;;;;;;5058370;28;20025;-94
2022/07/13 02:54:03;;;;;;;1.73;1.52;;;15.30;99.90;;;;;;5058925;28;20032;-96
2022/07/13 02:56:30;;;;;;;1.63;1.52;;;15.20;99.90;;;;;;5058249;28;20025;-94
2022/07/13 02:58:56;;;;;;;3.38;1.27;;;15.10;99.90;;;;;;5061087;28;20033;-94
2022/07/13 03:01:22;;;;;;;2.08;1.30;;;15.00;99.90;;;;;;5058481;28;20029;-93
2022/07/13 03:03:48;;;;;;;1.73;1.33;;;14.80;99.90;;;;;;5058167;28;20064;-94
2022/07/13 03:06:14;;;;;;;2.30;1.40;;;14.70;99.90;;;;;;5058485;28;20025;-93
2022/07/13 03:08:40;;;;;;;3.65;1.42;;;14.60;99.90;;;;;;5058407;28;20087;-95
2022/07/13 03:11:07;;;;;;;1.65;1.40;;;14.50;99.90;;;;;;5058410;28;20028;-94
2022/07/13 03:13:33;;;;;;;1.42;1.33;;;14.40;99.90;;;;;;5058863;28;20029;-93
2022/07/13 03:15:59;;;;;;;1.58;1.48;;;14.40;99.90;;;;;;5058300;28;20009;-92
2022/07/13 03:18:25;;;;;;;2.15;1.70;;;14.30;99.90;;;;;;5058440;28;20036;-93
2022/07/13 03:20:51;;;;;;;1.92;1.67;;;14.20;99.90;;;;;;5057776;28;20484;-93
2022/07/13 03:23:17;;;;;;;2.15;1.42;;;14.20;99.90;;;;;;5060642;28;20009;-94
2022/07/13 03:25:42;;;;;;;3.20;1.50;;;14.20;99.90;;;;;;5062201;28;20063;-95
2022/07/13 03:28:09;;;;;;;3.80;1.52;;;14.20;99.90;;;;;;5062568;28;20115;-95
2022/07/13 03:30:35;;;;;;;1.70;1.60;;;14.30;99.90;;;;;;5062006;28;20055;-93
2022/07/13 03:33:01;;;;;;;2.05;1.85;;;14.30;99.90;;;;;;5062088;28;20039;-94
2022/07/13 03:35:27;;;;;;;3.97;3.10;;;14.20;99.90;;;;;;5061334;28;20153;-91
2022/07/13 03:37:53;;;;;;;5.63;1.65;;;14.20;99.90;;;;;;5060295;28;20029;-93
2022/07/13 03:40:23;;;;;;;2.33;1.70;;;14.10;99.90;;;;;;5061088;28;20467;-92
2022/07/13 03:42:50;;;;;;;4.47;1.80;;;14.10;99.90;;;;;;5060189;28;20036;-92
2022/07/13 03:45:16;;;;;;;1.33;1.23;;;14.10;99.90;;;;;;5061080;28;20025;-93
2022/07/13 03:47:42;;;;;;;2.58;1.67;;;14.10;99.90;;;;;;5060258;28;20032;-92
2022/07/13 03:50:09;;;;;;;4.60;1.60;;;14.20;99.90;;;;;;5060509;28;20032;-93
2022/07/13 03:52:35;;;;;;;2.10;1.40;;;14.20;99.90;;;;;;5060413;28;20025;-93
2022/07/13 03:55:02;;;;;;;2.15;1.40;;;14.20;99.90;;;;;;5060085;28;20022;-93
2022/07/13 03:57:29;;;;;;;2.63;1.60;;;14.20;99.90;;;;;;5060250;28;20029;-93
2022/07/13 03:59:55;;;;;;;4.80;1.48;;;14.30;99.90;;;;;;5043422;28;20025;-93
2022/07/13 04:02:21;;;;;;;1.95;1.75;;;14.30;99.90;;;;;;5060671;28;20032;-93
2022/07/13 04:04:47;;;;;;;3.05;2.78;;;14.50;99.90;;;;;;5060483;28;20029;-93
2022/07/13 04:07:13;;;;;;;3.90;2.47;;;14.50;99.90;;;;;;5059714;28;20028;-92
2022/07/13 04:09:40;;;;;;;5.25;2.10;;;14.70;99.90;;;;;;5060097;28;20392;-93
2022/07/13 04:12:06;;;;;;;3.22;2.47;;;14.80;99.90;;;;;;5059345;28;20037;-94
2022/07/13 04:14:32;;;;;;;5.13;2.38;;;14.80;99.90;;;;;;5059903;28;20029;-93
2022/07/13 04:16:58;;;;;;;2.83;2.05;;;14.80;99.90;;;;;;5059607;28;20107;-92
2022/07/13 04:19:26;;;;;;;3.63;2.38;;;14.90;99.90;;;;;;5058925;28;20028;-94
2022/07/13 04:21:53;;;;;;;5.00;1.80;;;14.90;99.90;;;;;;5059273;28;20025;-93
2022/07/13 04:24:19;;;;;;;2.25;2.03;;;15.10;99.90;;;;;;5059754;28;20070;-92
2022/07/13 04:26:46;;;;;;;2.42;1.73;;;15.20;99.90;;;;;;5059502;28;20040;-93
2022/07/13 04:29:13;;;;;;;4.18;1.88;;;15.30;99.90;;;;;;5059116;28;20484;-92
2022/07/13 04:31:39;;;;;;;2.03;1.85;;;15.50;99.90;;;;;;5059609;28;20029;-93
2022/07/13 04:34:05;;;;;;;2.20;2.00;;;15.60;99.90;;;;;;5057752;28;20032;-94
2022/07/13 04:36:31;;;;;;;2.50;1.80;;;15.70;99.90;;;;;;5057260;28;20036;-93
2022/07/13 04:38:58;;;;;;;5.05;1.58;;;15.80;99.90;;;;;;5059033;28;20040;-93
2022/07/13 04:41:24;;;;;;;2.08;1.77;;;15.90;99.90;;;;;;5058849;28;20468;-92
2022/07/13 04:43:52;;;;;;;2.30;2.10;;;16.10;99.90;;;;;;5059092;28;20025;-93
2022/07/13 04:46:19;;;;;;;4.18;2.30;;;16.20;99.90;;;;;;5058916;28;20017;-93
2022/07/13 04:48:48;;;;;;;5.75;2.15;;;16.40;99.90;;;;;;5058350;28;20037;-93
2022/07/13 04:51:14;;;;;;;3.08;2.08;;;16.50;99.90;;;;;;5058357;28;20029;-93
2022/07/13 04:53:43;;;;;;;4.22;1.80;;;16.70;99.90;;;;;;5057594;28;20033;-93
2022/07/13 04:56:12;;;;;;;5.85;2.28;;;16.80;99.90;;;;;;5060174;28;20037;-93
2022/07/13 04:58:38;;;;;;;6.93;2.47;;;17.00;99.90;;;;;;5025613;28;20037;-93
2022/07/13 05:01:06;;;;;;;2.78;1.75;;;17.10;99.90;;;;;;5058747;28;20033;-94
2022/07/13 05:03:33;;;;;;;6.13;2.10;;;17.20;99.90;;;;;;5058494;28;20021;-93
2022/07/13 05:06:00;;;;;;;4.47;2.10;;;17.30;99.90;;;;;;5058968;28;20384;-93
2022/07/13 05:08:26;;;;;;;3.58;2.28;;;17.50;99.90;;;;;;5059022;28;20029;-95
2022/07/13 05:10:53;;;;;;;5.60;1.75;;;17.60;99.90;;;;;;5058501;28;20032;-94
2022/07/13 05:13:19;;;;;;;2.38;1.83;;;17.80;99.90;;;;;;5058375;28;20484;-92
2022/07/13 05:15:47;;;;;;;2.53;1.55;;;18.00;99.90;;;;;;5061872;28;20051;-93
2022/07/13 05:18:13;;;;;;;7.88;2.63;;;18.30;99.90;;;;;;5061082;28;20036;-89
2022/07/13 05:20:39;;;;;;;4.30;1.80;;;18.80;99.90;;;;;;5058837;28;20108;-95
2022/07/13 05:23:05;;;;;;;1.60;1.50;;;19.30;99.90;;;;;;5058905;28;20048;-94
2022/07/13 05:25:33;;;;;;;1.50;1.40;;;19.80;99.90;;;;;;5058488;28;20438;-94
2022/07/13 05:27:59;;;;;;;3.88;1.52;;;20.10;99.90;;;;;;5058474;28;20040;-93
2022/07/13 05:30:25;;;;;;;4.03;1.70;;;20.50;99.90;;;;;;5059007;28;20040;-95
2022/07/13 05:33:28;;;;;;;3.42;1.67;;;20.80;99.90;;;;;;5058273;28;20032;-95
2022/07/13 05:35:55;;;;;;;3.35;2.10;;;20.80;99.90;;;;;;5059210;28;20059;-93
2022/07/13 05:38:22;;;;;;;3.22;1.98;;;20.80;99.90;;;;;;5059015;28;20025;-94
2022/07/13 05:40:49;;;;;;;3.20;1.77;;;20.80;99.90;;;;;;5059267;28;20028;-95
2022/07/13 05:43:15;;;;;;;3.05;1.50;;;20.80;99.90;;;;;;5058876;28;20029;-94
2022/07/13 05:45:41;;;;;;;1.92;1.45;;;20.80;99.90;;;;;;5058278;28;20033;-94
2022/07/13 05:48:07;;;;;;;3.65;1.90;;;20.80;99.90;;;;;;5058599;28;20402;-94
2022/07/13 05:50:32;;;;;;;1.85;1.60;;;20.90;99.90;;;;;;5058557;28;20461;-93
2022/07/13 05:52:58;;;;;;;1.50;1.40;;;21.00;99.90;;;;;;5059272;28;20037;-95
2022/07/13 05:55:24;;;;;;;2.25;1.65;;;21.10;99.90;;;;;;5061230;28;20032;-94
2022/07/13 05:57:50;;;;;;;6.15;1.77;;;21.30;99.90;;;;;;5060863;28;20107;-95
2022/07/13 06:00:15;;;;;;;3.70;1.70;;;21.60;99.90;;;;;;5057257;28;20029;-95
2022/07/13 06:02:42;;;;;;;2.22;1.17;;;21.80;99.90;;;;;;5075044;28;20545;-93
2022/07/13 06:05:10;;;;;;;3.70;1.70;;;22.10;99.90;;;;;;5057868;28;20516;-93
2022/07/13 06:08:07;;;;;;;5.32;1.83;;;22.30;99.90;;;;;;5057165;28;20060;-93
2022/07/13 06:11:16;;;;;;;3.08;1.80;;;22.50;99.90;;;;;;5058964;28;20423;-94
2022/07/13 06:13:42;;;;;;;4.35;1.50;;;22.60;99.90;;;;;;5041855;28;20088;-93
2022/07/13 06:16:08;;;;;;;3.92;1.50;;;22.80;99.90;;;;;;5058701;28;20061;-94
2022/07/13 06:18:33;;;;;;;5.30;1.50;;;22.90;99.90;;;;;;5074348;28;20407;-94
2022/07/13 06:21:09;;;;;;;7.10;1.67;;;23.00;99.90;;;;;;5057403;28;20473;-93
2022/07/13 06:23:34;;;;;;;1.50;1.40;;;23.30;99.90;;;;;;5057553;28;20082;-94
2022/07/13 06:26:00;;;;;;;2.70;1.45;;;23.50;99.90;;;;;;5072643;28;20028;-94
2022/07/13 06:28:26;;;;;;;2.58;1.30;;;23.80;99.90;;;;;;5056286;28;20480;-93
2022/07/13 06:30:52;;;;;;;4.45;1.50;;;24.00;99.90;;;;;;5056608;28;20071;-94
2022/07/13 06:33:18;;;;;;;2.08;1.40;;;24.10;99.90;;;;;;5056137;28;20036;-93
2022/07/13 06:35:43;;;;;;;1.65;1.20;;;24.20;99.90;;;;;;5055691;28;20480;-94
2022/07/13 06:38:09;;;;;;;4.75;1.63;;;24.30;99.90;;;;;;5056144;28;20131;-94
2022/07/13 06:40:35;;;;;;;2.42;1.20;;;24.40;99.90;;;;;;5055937;28;20069;-95
2022/07/13 06:43:00;;;;;;;3.70;0.95;;;24.50;99.90;;;;;;5056133;28;20033;-93
2022/07/13 06:46:00;;;;;;;1.15;0.95;;;24.80;99.90;;;;;;5072973;28;20419;-93
2022/07/13 06:48:26;;;;;;;1.95;1.17;;;25.30;99.90;;;;;;5055627;28;20025;-94
2022/07/13 06:50:52;;;;;;;2.00;1.10;;;25.60;99.90;;;;;;5055975;28;20036;-93
2022/07/13 06:53:18;;;;;;;3.40;1.10;;;25.80;99.90;;;;;;5057219;28;20031;-94
2022/07/13 06:55:46;;;;;;;2.15;1.05;;;26.00;99.90;;;;;;5053153;28;20039;-93
2022/07/13 06:58:12;;;;;;;3.35;0.98;;;25.90;99.90;;;;;;5055450;28;20029;-93
2022/07/13 07:00:38;;;;;;;5.53;1.70;;;25.80;99.90;;;;;;5056139;28;20481;-95
2022/07/13 07:03:04;;;;;;;1.30;1.20;;;25.80;99.90;;;;;;5056749;28;20025;-94
2022/07/13 07:05:29;;;;;;;3.13;1.20;;;25.90;99.90;;;;;;5058604;28;20480;-93
2022/07/13 07:07:55;;;;;;;2.22;1.30;;;26.10;99.90;;;;;;5056893;28;20032;-93
2022/07/13 07:10:21;;;;;;;1.55;1.15;;;26.30;99.90;;;;;;5058173;28;20499;-94
2022/07/13 07:12:47;;;;;;;9.43;1.17;;;26.50;99.90;;;;;;5057792;28;20472;-93
2022/07/13 07:15:13;;;;;;;1.05;0.82;;;26.60;99.10;;;;;;5059163;28;20072;-92
2022/07/13 07:17:48;;;;;;;1.55;1.00;;;26.70;98.10;;;;;;5055806;28;20036;-94
2022/07/13 07:20:15;;;;;;;3.40;0.95;;;27.10;96.40;;;;;;5056379;28;20127;-95
2022/07/13 07:22:42;;;;;;;1.80;0.90;;;27.20;97.00;;;;;;5057254;28;20060;-96
2022/07/13 07:25:09;;;;;;;0.85;0.82;;;27.40;95.80;;;;;;5056195;28;20051;-94
2022/07/13 07:27:35;;;;;;;3.20;0.90;;;27.30;95.30;;;;;;5056309;28;20025;-95
2022/07/13 07:30:01;;;;;;;3.63;0.90;;;27.20;94.50;;;;;;5072517;28;20428;-93
2022/07/13 07:32:27;;;;;;;1.50;0.80;;;27.10;93.80;;;;;;5057085;28;20205;-94
2022/07/13 07:34:52;;;;;;;1.05;0.85;;;26.90;94.30;;;;;;5056774;28;20033;-94
2022/07/13 07:37:22;;;;;;;2.65;1.00;;;26.80;92.90;;;;;;5057658;28;20083;-94
2022/07/13 07:39:49;;;;;;;1.10;0.98;;;26.70;93.60;;;;;;5057629;28;20032;-95
2022/07/13 07:42:15;;;;;;;3.72;1.00;;;26.50;94.00;;;;;;5058303;28;20021;-93
2022/07/13 07:44:40;;;;;;;1.98;1.00;;;26.50;93.50;;;;;;5057873;28;20035;-93
2022/07/13 07:47:06;;;;;;;2.70;0.80;;;26.40;92.70;;;;;;5057728;28;20037;-94
2022/07/13 07:49:32;;;;;;;7.53;1.25;;;26.20;94.00;;;;;;5057655;28;20087;-94
2022/07/13 07:51:58;;;;;;;2.58;1.02;;;26.00;93.40;;;;;;5057323;28;20070;-93
2022/07/13 07:54:25;;;;;;;2.00;1.27;;;25.80;94.70;;;;;;5072491;28;20136;-94
2022/07/13 07:56:50;;;;;;;5.75;1.30;;;25.40;94.60;;;;;;5056466;28;20598;-92
2022/07/13 07:59:16;;;;;;;0.82;0.80;;;25.10;95.50;;;;;;5056395;28;20071;-94
2022/07/13 08:01:43;;;;;;;3.30;0.95;;;25.60;95.00;;;;;;5074279;28;20491;-94
2022/07/13 08:04:09;;;;;;;1.17;0.90;;;27.50;94.20;;;;;;5064187;28;20033;-94
2022/07/13 08:06:34;;;;;;;3.10;0.80;;;29.50;91.10;;;;;;5063498;28;20484;-94
2022/07/13 08:09:00;;;;;;;0.90;0.82;;;31.20;87.00;;;;;;5059863;28;20120;-96
2022/07/13 08:11:26;;;;;;;1.75;0.60;;;32.60;80.70;;;;;;5059493;28;20037;-94
2022/07/13 08:13:52;;;;;;;2.95;0.70;;;33.60;74.50;;;;;;5059391;28;20029;-95
2022/07/13 08:16:18;;;;;;;4.30;0.90;;;33.40;70.00;;;;;;5060008;28;20037;-94
2022/07/13 08:18:45;;;;;;;1.88;0.70;;;33.50;69.20;;;;;;5059733;28;20377;-96
2022/07/13 08:21:11;;;;;;;2.20;0.70;;;33.60;66.00;;;;;;5059620;28;20025;-95
2022/07/13 08:23:53;;;;;;;0.73;0.60;;;33.00;65.70;;;;;;5060990;28;20501;-96
2022/07/13 08:26:20;;;;;;;3.53;0.52;;;32.60;64.40;;;;;;5080502;28;20123;-95
2022/07/13 08:28:47;;;;;;;3.20;0.60;;;32.80;64.30;;;;;;5063186;28;20032;-96
2022/07/13 08:31:13;;;;;;;1.63;0.70;;;32.30;62.50;;;;;;5061577;28;20025;-95
2022/07/13 08:39:10;;;;;;;3.47;1.10;;;32.20;60.60;;;;;;5061966;28;20033;-94
2022/07/13 08:41:36;;;;;;;1.33;0.77;;;32.90;59.40;;;;;;5061878;28;20025;-94
2022/07/13 08:44:03;;;;;;;3.80;0.90;;;33.00;59.20;;;;;;5063994;28;20097;-94
2022/07/13 08:46:30;;;;;;;1.02;0.73;;;33.80;58.90;;;;;;5061143;28;20384;-95
2022/07/13 08:48:57;;;;;;;1.60;0.73;;;34.10;55.70;;;;;;5060778;28;20028;-95
2022/07/13 08:51:25;;;;;;;1.45;0.80;;;34.30;52.40;;;;;;5062804;28;20037;-96
2022/07/13 08:53:52;;;;;;;0.82;0.68;;;34.70;54.20;;;;;;5063009;28;20025;-96
2022/07/13 08:56:18;;;;;;;2.70;0.60;;;35.40;52.80;;;;;;5061972;28;20109;-96
2022/07/13 08:58:44;;;;;;;3.85;0.90;;;35.20;51.50;;;;;;5061632;28;20025;-96
2022/07/13 09:01:11;;;;;;;7.35;1.00;;;35.50;52.20;;;;;;5066269;28;20052;-95
2022/07/13 09:03:37;;;;;;;1.02;0.90;;;35.30;51.30;;;;;;5067688;28;20043;-96
2022/07/13 09:06:04;;;;;;;1.83;0.95;;;34.90;51.40;;;;;;5065830;28;20029;-96
2022/07/13 09:08:31;;;;;;;1.08;0.65;;;34.20;52.00;;;;;;5064769;28;20118;-96
2022/07/13 09:10:59;;;;;;;1.70;0.80;;;33.80;53.00;;;;;;5062534;28;20029;-96
2022/07/13 09:13:44;;;;;;;1.25;0.75;;;33.00;53.60;;;;;;5061827;28;20500;-95
2022/07/13 09:16:17;;;;;;;1.30;1.00;;;32.60;53.80;;;;;;5059419;28;20481;-94
2022/07/13 09:19:03;;;;;;;5.45;1.25;;;31.90;55.90;;;;;;5058665;28;20033;-94
2022/07/13 09:21:30;;;;;;;2.65;0.70;;;31.80;55.40;;;;;;5058405;28;20041;-95
2022/07/13 09:23:58;;;;;;;2.20;0.70;;;32.40;54.50;;;;;;5059183;28;20075;-95
2022/07/13 09:26:40;;;;;;;6.35;1.00;;;32.90;54.60;;;;;;5058584;28;20445;-96
2022/07/13 09:29:05;;;;;;;4.88;0.90;;;33.80;52.80;;;;;;5058856;28;20036;-95
2022/07/13 09:31:48;;;;;;;4.50;0.85;;;33.80;52.80;;;;;;5058421;28;20075;-94
2022/07/13 09:34:14;;;;;;;1.58;0.80;;;34.30;53.20;;;;;;5059243;28;20029;-94
2022/07/13 09:36:40;;;;;;;1.23;0.82;;;33.90;51.80;;;;;;5060200;28;20369;-94
2022/07/13 09:39:09;;;;;;;4.70;0.90;;;32.90;52.90;;;;;;5060407;28;20036;-93
2022/07/13 09:41:35;;;;;;;2.70;0.82;;;32.00;53.00;;;;;;5059222;28;20029;-94
2022/07/13 09:47:19;;;;;;;0.85;0.60;;;33.40;51.90;;;;;;5058986;28;20128;-93
2022/07/13 09:49:45;;;;;;;2.42;0.80;;;32.20;52.30;;;;;;5058683;28;20079;-94
2022/07/13 09:52:18;;;;;;;1.50;0.98;;;31.30;53.70;;;;;;5058005;28;20035;-93
2022/07/13 09:54:51;;;;;;;0.70;0.70;;;31.80;54.00;;;;;;5058261;28;20040;-91
2022/07/13 09:57:21;;;;;;;1.67;0.88;;;32.60;52.70;;;;;;5058279;28;20036;-93
2022/07/13 09:59:49;;;;;;;3.35;1.08;;;33.90;51.40;;;;;;5058514;28;20060;-90
2022/07/13 10:02:16;;;;;;;5.45;0.98;;;34.50;51.10;;;;;;5058614;28;20037;-96
2022/07/13 10:04:43;;;;;;;0.77;0.70;;;34.60;50.10;;;;;;5058838;28;20036;-94
2022/07/13 10:07:09;;;;;;;1.85;0.80;;;34.60;49.50;;;;;;5058340;28;20353;-95
2022/07/13 10:09:39;;;;;;;3.15;0.90;;;34.90;49.80;;;;;;5059778;28;20408;-95
2022/07/13 10:12:10;;;;;;;0.88;0.80;;;35.00;49.40;;;;;;5059054;28;20037;-96
2022/07/13 10:14:37;;;;;;;2.08;0.90;;;34.20;50.70;;;;;;5058750;28;20028;-96
2022/07/13 10:17:11;;;;;;;0.70;0.70;;;33.60;50.70;;;;;;5059075;28;20029;-94
2022/07/13 10:19:49;;;;;;;3.33;0.85;;;34.30;50.50;;;;;;5059266;28;20485;-95
2022/07/13 10:22:19;;;;;;;1.60;0.77;;;34.60;51.00;;;;;;5058762;28;20025;-93
2022/07/13 10:28:33;;;;;;;4.63;0.70;;;34.30;47.90;;;;;;5062297;28;20063;-96
2022/07/13 10:31:28;;;;;;;7.60;1.05;;;33.90;51.10;;;;;;5059748;28;20059;-95
2022/07/13 10:33:56;;;;;;;2.08;0.70;;;33.90;49.90;;;;;;5058165;28;20111;-94
2022/07/13 10:37:00;;;;;;;1.83;1.00;;;33.70;50.60;;;;;;5057821;28;20033;-95
2022/07/13 10:39:27;;;;;;;2.20;1.02;;;33.70;50.40;;;;;;5058167;28;20033;-93
2022/07/13 10:42:19;;;;;;;2.15;0.90;;;33.60;50.40;;;;;;5057796;28;20025;-95
2022/07/13 10:44:45;;;;;;;2.70;1.17;;;33.70;50.70;;;;;;5053327;28;20377;-94
2022/07/13 10:47:13;;;;;;;1.17;1.00;;;33.60;51.10;;;;;;5057612;28;20124;-95
2022/07/13 10:49:48;;;;;;;1.13;0.90;;;33.40;51.70;;;;;;5057229;28;20067;-94
2022/07/13 10:55:05;;;;;;;0.90;0.80;;;32.90;51.90;;;;;;5057885;28;20037;-91
2022/07/13 10:57:33;;;;;;;1.45;0.90;;;32.40;52.10;;;;;;5041015;28;20037;-93
2022/07/13 11:00:16;;;;;;;1.10;0.80;;;32.60;52.40;;;;;;5057830;28;20465;-94
2022/07/13 11:02:49;;;;;;;5.30;0.90;;;32.70;51.60;;;;;;5057434;28;20031;-95
2022/07/13 11:05:25;;;;;;;5.60;1.10;;;33.10;50.70;;;;;;5057995;28;20128;-94
2022/07/13 11:07:52;;;;;;;5.43;0.85;;;33.10;48.60;;;;;;5045175;28;20115;-95
2022/07/13 11:10:36;;;;;;;10.13;1.45;;;33.40;48.90;;;;;;5042016;28;20021;-96
2022/07/13 11:13:13;;;;;;;1.98;0.90;;;33.90;50.50;;;;;;5034753;28;20435;-96
2022/07/13 11:15:50;;;;;;;4.25;0.80;;;33.90;49.70;;;;;;5021592;28;20495;-94
2022/07/13 11:18:22;;;;;;;0.90;0.90;;;34.10;50.30;;;;;;5021381;28;20405;-95
2022/07/13 11:21:00;;;;;;;0.68;0.68;;;34.80;47.40;;;;;;5021665;28;20037;-93
2022/07/13 11:26:53;;;;;;;7.55;1.15;;;35.50;46.60;;;;;;5040841;28;20064;-95
2022/07/13 11:29:49;;;;;;;1.63;0.70;;;35.10;46.30;;;;;;5023276;28;20061;-94
2022/07/13 11:32:20;;;;;;;0.82;0.70;;;34.50;44.20;;;;;;5040673;28;20029;-94
2022/07/13 11:34:49;;;;;;;2.38;0.70;;;34.10;43.50;;;;;;5023751;28;20097;-93
2022/07/13 11:37:22;;;;;;;3.42;0.73;;;34.20;45.80;;;;;;5023067;28;20081;-95
2022/07/13 11:39:48;;;;;;;2.33;0.73;;;34.50;44.50;;;;;;5020744;28;20445;-95
2022/07/13 11:42:13;;;;;;;1.20;0.70;;;34.70;44.10;;;;;;5036447;28;20030;-93
2022/07/13 11:44:40;;;;;;;0.80;0.60;;;33.90;44.50;;;;;;5038860;28;20068;-92
2022/07/13 11:47:09;;;;;;;0.70;0.70;;;33.80;45.40;;;;;;5022681;28;20033;-92
2022/07/13 11:49:43;;;;;;;3.00;2.35;;;34.50;44.70;;;;;;5030835;28;20132;-93
2022/07/13 11:52:28;;;;;;;3.40;0.88;;;35.30;44.50;;;;;;5043920;28;20036;-95
2022/07/13 11:54:59;;;;;;;2.53;0.68;;;35.60;44.10;;;;;;5044692;28;20033;-94
2022/07/13 11:57:29;;;;;;;3.88;1.02;;;35.70;44.50;;;;;;5044419;28;20017;-95
2022/07/13 12:00:08;;;;;;;6.28;0.75;;;35.30;44.90;;;;;;5044470;28;20063;-94
2022/07/13 12:02:37;;;;;;;1.80;1.05;;;35.10;44.30;;;;;;5060930;28;20029;-93
2022/07/13 12:05:03;;;;;;;1.08;0.60;;;34.90;46.20;;;;;;5044596;28;20029;-95
2022/07/13 12:07:30;;;;;;;1.88;0.90;;;34.40;46.30;;;;;;5043009;28;20565;-94
2022/07/13 12:09:56;;;;;;;1.40;1.00;;;34.70;46.10;;;;;;5043962;28;20496;-95
2022/07/13 12:13:08;;;;;;;5.55;1.00;;;34.50;46.10;;;;;;5043515;28;20033;-93
2022/07/13 12:15:34;;;;;;;8.13;1.20;;;34.60;46.80;;;;;;5043194;28;20476;-95
2022/07/13 12:18:08;;;;;;;2.13;0.98;;;34.40;47.00;;;;;;5043903;28;20037;-94
2022/07/13 12:20:34;;;;;;;1.63;0.90;;;33.90;46.70;;;;;;5043590;28;20468;-94
2022/07/13 12:22:59;;;;;;;5.40;1.08;;;33.60;47.90;;;;;;5042534;28;20087;-93
2022/07/13 12:25:36;;;;;;;4.00;1.05;;;33.40;47.20;;;;;;5042955;28;20074;-94
2022/07/13 12:28:04;;;;;;;3.80;0.90;;;32.50;47.50;;;;;;5041990;28;20029;-88
2022/07/13 12:30:32;;;;;;;2.40;1.10;;;32.30;48.90;;;;;;5039109;28;20032;-90
2022/07/13 12:32:59;;;;;;;6.68;1.05;;;32.70;48.90;;;;;;5039266;28;20021;-90
2022/07/13 12:35:45;;;;;;;3.03;1.20;;;33.00;48.80;;;;;;5039032;28;20029;-91
2022/07/13 12:38:14;;;;;;;4.40;1.00;;;33.40;49.40;;;;;;5055508;28;20537;-91
2022/07/13 12:40:42;;;;;;;4.30;1.00;;;32.90;48.50;;;;;;5039144;28;20553;-90
2022/07/13 12:43:35;;;;;;;2.90;1.00;;;32.90;49.10;;;;;;5056800;28;20184;-91
2022/07/13 12:46:03;;;;;;;2.78;1.00;;;33.10;48.40;;;;;;5068897;28;20102;-91
2022/07/13 12:48:32;;;;;;;3.33;0.90;;;33.10;48.40;;;;;;5038802;28;20033;-90
2022/07/13 12:50:58;;;;;;;5.15;1.05;;;33.10;49.40;;;;;;5039577;28;20086;-90
2022/07/13 12:53:25;;;;;;;2.53;0.90;;;32.20;50.00;;;;;;5055575;28;20052;-90
2022/07/13 12:55:55;;;;;;;7.00;2.70;;;31.60;50.50;;;;;;5038128;28;20033;-91
2022/07/13 12:58:42;;;;;;;1.95;0.90;;;31.70;49.50;;;;;;5039928;28;20052;-90
2022/07/13 13:01:08;;;;;;;0.65;0.65;;;32.00;48.80;;;;;;5038935;28;20040;-91
2022/07/13 13:03:33;;;;;;;2.70;0.80;;;31.90;49.50;;;;;;5055698;28;20481;-91
2022/07/13 13:06:00;;;;;;;6.25;1.27;;;31.80;50.00;;;;;;5055814;28;20497;-91
2022/07/13 13:12:07;;;;;;;1.25;1.00;;;30.50;50.20;;;;;;5054647;28;20067;-90
2022/07/13 13:14:32;;;;;;;3.20;1.40;;;30.20;52.00;;;;;;5054888;28;20509;-91
2022/07/13 13:16:58;;;;;;;1.15;0.90;;;30.20;51.40;;;;;;5055473;28;20040;-90
2022/07/13 13:19:24;;;;;;;2.88;1.00;;;30.30;50.40;;;;;;5039074;28;20033;-91
2022/07/13 13:21:49;;;;;;;1.45;0.90;;;30.50;51.30;;;;;;5056197;28;20078;-89